createdAt,value
2019-03-29T00:00:42.877Z,1029.46
2019-03-29T00:01:42.797Z,1029.43
2019-03-29T00:02:43.089Z,1029.37
2019-03-29T00:03:42.853Z,1029.36
2019-03-29T00:04:42.760Z,1029.34
2019-03-29T00:05:42.751Z,1029.31
2019-03-29T00:06:42.729Z,1029.35
2019-03-29T00:07:42.727Z,1029.35
2019-03-29T00:08:42.793Z,1029.35
2019-03-29T00:09:42.704Z,1029.34
2019-03-29T00:10:42.702Z,1029.30
2019-03-29T00:11:42.699Z,1029.34
2019-03-29T00:12:42.661Z,1029.32
2019-03-29T00:13:42.655Z,1029.33
2019-03-29T00:14:42.708Z,1029.34
2019-03-29T00:15:42.642Z,1029.30
2019-03-29T00:16:42.648Z,1029.33
2019-03-29T00:17:43.985Z,1029.37
2019-03-29T00:18:42.656Z,1029.31
2019-03-29T00:19:42.665Z,1029.38
2019-03-29T00:20:42.578Z,1029.36
2019-03-29T00:21:42.583Z,1029.34
2019-03-29T00:22:42.568Z,1029.32
2019-03-29T00:23:42.543Z,1029.31
2019-03-29T00:24:42.536Z,1029.29
2019-03-29T00:25:42.600Z,1029.30
2019-03-29T00:26:42.602Z,1029.30
2019-03-29T00:27:42.513Z,1029.32
2019-03-29T00:28:42.495Z,1029.27
2019-03-29T00:29:42.489Z,1029.29
2019-03-29T00:31:53.332Z,1029.30
2019-03-29T00:32:53.266Z,1029.31
2019-03-29T00:33:53.241Z,1029.26
2019-03-29T00:34:53.287Z,1029.26
2019-03-29T00:35:53.225Z,1029.28
2019-03-29T00:36:53.206Z,1029.24
2019-03-29T00:37:55.642Z,1029.23
2019-03-29T00:38:53.248Z,1029.23
2019-03-29T00:39:53.173Z,1029.21
2019-03-29T00:40:53.160Z,1029.26
2019-03-29T00:41:53.164Z,1029.22
2019-03-29T00:42:53.149Z,1029.26
2019-03-29T00:43:53.214Z,1029.27
2019-03-29T00:44:53.186Z,1029.26
2019-03-29T00:45:53.114Z,1029.23
2019-03-29T00:46:53.108Z,1029.21
2019-03-29T00:47:53.118Z,1029.18
2019-03-29T00:48:53.083Z,1029.18
2019-03-29T00:49:53.122Z,1029.16
2019-03-29T00:50:53.058Z,1029.16
2019-03-29T00:51:53.153Z,1029.16
2019-03-29T00:52:53.045Z,1029.14
2019-03-29T00:53:53.024Z,1029.21
2019-03-29T00:54:53.064Z,1029.18
2019-03-29T00:55:52.999Z,1029.18
2019-03-29T00:56:52.995Z,1029.17
2019-03-29T00:57:52.978Z,1029.11
2019-03-29T00:58:52.974Z,1029.17
2019-03-29T00:59:53.016Z,1029.13
2019-03-29T01:00:52.978Z,1029.08
2019-03-29T01:01:53.108Z,1029.07
2019-03-29T01:02:52.932Z,1029.01
2019-03-29T01:03:52.987Z,1029.01
2019-03-29T01:04:52.898Z,1029.00
2019-03-29T01:05:52.951Z,1029.01
2019-03-29T01:06:52.934Z,1028.95
2019-03-29T01:08:06.758Z,1029.00
2019-03-29T01:08:53.873Z,1028.95
2019-03-29T01:09:52.850Z,1028.95
2019-03-29T01:10:52.890Z,1028.96
2019-03-29T01:11:52.826Z,1028.92
2019-03-29T01:12:52.818Z,1028.92
2019-03-29T01:13:52.806Z,1028.88
2019-03-29T01:14:52.789Z,1028.94
2019-03-29T01:15:52.858Z,1028.92
2019-03-29T01:16:53.866Z,1028.93
2019-03-29T01:17:52.764Z,1028.93
2019-03-29T01:18:52.743Z,1028.93
2019-03-29T01:19:52.735Z,1028.89
2019-03-29T01:20:52.740Z,1028.92
2019-03-29T01:21:52.776Z,1028.89
2019-03-29T01:22:52.705Z,1028.92
2019-03-29T01:23:52.713Z,1028.90
2019-03-29T01:24:52.677Z,1028.87
2019-03-29T01:25:52.674Z,1028.91
2019-03-29T01:26:53.123Z,1028.93
2019-03-29T01:27:52.655Z,1028.93
2019-03-29T01:28:52.640Z,1028.94
2019-03-29T01:29:52.691Z,1028.89
2019-03-29T01:30:52.613Z,1028.91
2019-03-29T01:31:52.613Z,1028.89
2019-03-29T01:32:52.653Z,1028.89
2019-03-29T01:33:52.582Z,1028.90
2019-03-29T01:34:52.584Z,1028.87
2019-03-29T01:35:52.615Z,1028.89
2019-03-29T01:36:53.204Z,1028.85
2019-03-29T01:37:52.547Z,1028.89
2019-03-29T01:38:52.528Z,1028.82
2019-03-29T01:39:52.523Z,1028.84
2019-03-29T01:40:52.624Z,1028.89
2019-03-29T01:41:53.085Z,1028.87
2019-03-29T01:42:52.491Z,1028.82
2019-03-29T01:43:52.471Z,1028.83
2019-03-29T01:44:53.225Z,1028.83
2019-03-29T01:45:52.453Z,1028.82
2019-03-29T01:46:52.527Z,1028.84
2019-03-29T01:47:52.426Z,1028.87
2019-03-29T01:48:52.423Z,1028.85
2019-03-29T01:49:52.436Z,1028.85
2019-03-29T01:50:52.398Z,1028.84
2019-03-29T01:51:53.916Z,1028.81
2019-03-29T01:52:52.390Z,1028.79
2019-03-29T01:53:52.422Z,1028.79
2019-03-29T01:54:52.348Z,1028.81
2019-03-29T01:55:52.337Z,1028.82
2019-03-29T01:56:52.327Z,1028.83
2019-03-29T01:57:52.407Z,1028.84
2019-03-29T01:58:52.365Z,1028.85
2019-03-29T01:59:52.349Z,1028.80
2019-03-29T02:00:52.291Z,1028.85
2019-03-29T02:01:55.084Z,1028.88
2019-03-29T02:02:52.286Z,1028.86
2019-03-29T02:03:52.244Z,1028.82
2019-03-29T02:04:52.322Z,1028.81
2019-03-29T02:05:52.239Z,1028.79
2019-03-29T02:06:52.212Z,1028.75
2019-03-29T02:07:52.218Z,1028.74
2019-03-29T02:08:52.200Z,1028.75
2019-03-29T02:09:52.266Z,1028.76
2019-03-29T02:10:52.184Z,1028.73
2019-03-29T02:11:52.160Z,1028.78
2019-03-29T02:12:52.172Z,1028.81
2019-03-29T02:13:52.174Z,1028.78
2019-03-29T02:14:52.197Z,1028.80
2019-03-29T02:15:52.116Z,1028.76
2019-03-29T02:16:52.115Z,1028.82
2019-03-29T02:17:52.181Z,1028.77
2019-03-29T02:18:52.100Z,1028.81
2019-03-29T02:19:52.092Z,1028.77
2019-03-29T02:20:52.068Z,1028.76
2019-03-29T02:21:52.111Z,1028.76
2019-03-29T02:22:52.118Z,1028.78
2019-03-29T02:23:52.145Z,1028.74
2019-03-29T02:24:52.014Z,1028.73
2019-03-29T02:25:52.085Z,1028.74
2019-03-29T02:26:52.008Z,1028.72
2019-03-29T02:27:52.284Z,1028.70
2019-03-29T02:28:51.970Z,1028.67
2019-03-29T02:29:51.970Z,1028.67
2019-03-29T02:30:52.058Z,1028.64
2019-03-29T02:31:51.948Z,1028.67
2019-03-29T02:32:52.799Z,1028.68
2019-03-29T02:33:51.921Z,1028.63
2019-03-29T02:34:51.918Z,1028.66
2019-03-29T02:35:51.926Z,1028.65
2019-03-29T02:36:52.252Z,1028.65
2019-03-29T02:37:51.876Z,1028.64
2019-03-29T02:38:55.535Z,1028.67
2019-03-29T02:40:02.861Z,1028.63
2019-03-29T02:40:51.965Z,1028.62
2019-03-29T02:41:51.839Z,1028.66
2019-03-29T02:42:51.947Z,1028.71
2019-03-29T02:43:51.840Z,1028.70
2019-03-29T02:44:51.796Z,1028.73
2019-03-29T02:45:51.828Z,1028.67
2019-03-29T02:46:53.563Z,1028.66
2019-03-29T02:47:51.778Z,1028.69
2019-03-29T02:48:51.770Z,1028.72
2019-03-29T02:49:51.788Z,1028.75
2019-03-29T02:50:51.727Z,1028.72
2019-03-29T02:51:51.727Z,1028.70
2019-03-29T02:52:51.781Z,1028.68
2019-03-29T02:53:51.771Z,1028.69
2019-03-29T02:54:51.692Z,1028.73
2019-03-29T02:55:51.707Z,1028.74
2019-03-29T02:56:51.688Z,1028.68
2019-03-29T02:57:51.658Z,1028.67
2019-03-29T02:58:51.725Z,1028.68
2019-03-29T02:59:51.649Z,1028.67
2019-03-29T03:00:51.624Z,1028.65
2019-03-29T03:01:51.605Z,1028.68
2019-03-29T03:02:51.602Z,1028.63
2019-03-29T03:03:51.588Z,1028.62
2019-03-29T03:04:51.629Z,1028.62
2019-03-29T03:05:51.659Z,1028.57
2019-03-29T03:06:51.550Z,1028.62
2019-03-29T03:07:51.538Z,1028.59
2019-03-29T03:08:51.528Z,1028.62
2019-03-29T03:09:51.649Z,1028.62
2019-03-29T03:10:51.615Z,1028.66
2019-03-29T03:11:51.510Z,1028.62
2019-03-29T03:12:51.517Z,1028.66
2019-03-29T03:13:51.474Z,1028.67
2019-03-29T03:14:51.488Z,1028.68
2019-03-29T03:15:51.462Z,1028.61
2019-03-29T03:16:51.537Z,1028.66
2019-03-29T03:17:51.452Z,1028.63
2019-03-29T03:18:51.554Z,1028.59
2019-03-29T03:19:51.413Z,1028.66
2019-03-29T03:20:51.503Z,1028.71
2019-03-29T03:21:51.446Z,1028.67
2019-03-29T03:22:51.397Z,1028.68
2019-03-29T03:23:51.376Z,1028.67
2019-03-29T03:24:51.360Z,1028.68
2019-03-29T03:25:51.436Z,1028.71
2019-03-29T03:26:51.338Z,1028.67
2019-03-29T03:27:51.417Z,1028.70
2019-03-29T03:28:51.325Z,1028.69
2019-03-29T03:29:51.310Z,1028.68
2019-03-29T03:30:51.285Z,1028.68
2019-03-29T03:31:51.309Z,1028.71
2019-03-29T03:32:51.266Z,1028.71
2019-03-29T03:33:51.311Z,1028.73
2019-03-29T03:34:51.493Z,1028.77
2019-03-29T03:35:51.254Z,1028.71
2019-03-29T03:36:51.434Z,1028.75
2019-03-29T03:37:51.219Z,1028.71
2019-03-29T03:38:51.308Z,1028.74
2019-03-29T03:39:51.217Z,1028.72
2019-03-29T03:40:51.206Z,1028.72
2019-03-29T03:41:51.167Z,1028.71
2019-03-29T03:42:51.180Z,1028.73
2019-03-29T03:43:51.147Z,1028.72
2019-03-29T03:44:51.215Z,1028.71
2019-03-29T03:45:51.128Z,1028.73
2019-03-29T03:46:51.159Z,1028.67
2019-03-29T03:47:51.102Z,1028.73
2019-03-29T03:48:51.089Z,1028.68
2019-03-29T03:49:51.081Z,1028.70
2019-03-29T03:50:51.082Z,1028.71
2019-03-29T03:51:51.121Z,1028.73
2019-03-29T03:52:51.051Z,1028.74
2019-03-29T03:53:51.125Z,1028.75
2019-03-29T03:54:51.047Z,1028.74
2019-03-29T03:55:51.019Z,1028.77
2019-03-29T03:56:51.013Z,1028.77
2019-03-29T03:57:51.017Z,1028.76
2019-03-29T03:58:50.984Z,1028.77
2019-03-29T03:59:51.063Z,1028.76
2019-03-29T04:00:50.956Z,1028.77
2019-03-29T04:01:50.966Z,1028.77
2019-03-29T04:02:51.043Z,1028.75
2019-03-29T04:03:51.115Z,1028.72
2019-03-29T04:04:50.924Z,1028.77
2019-03-29T04:05:50.968Z,1028.80
2019-03-29T04:06:50.907Z,1028.77
2019-03-29T04:07:50.888Z,1028.79
2019-03-29T04:08:50.887Z,1028.82
2019-03-29T04:09:50.878Z,1028.80
2019-03-29T04:10:50.918Z,1028.83
2019-03-29T04:11:50.850Z,1028.83
2019-03-29T04:12:50.826Z,1028.82
2019-03-29T04:13:50.823Z,1028.82
2019-03-29T04:14:50.803Z,1028.82
2019-03-29T04:15:50.799Z,1028.85
2019-03-29T04:16:50.869Z,1028.86
2019-03-29T04:17:50.775Z,1028.87
2019-03-29T04:18:50.876Z,1028.89
2019-03-29T04:19:50.748Z,1028.85
2019-03-29T04:20:50.745Z,1028.87
2019-03-29T04:21:50.825Z,1028.90
2019-03-29T04:22:50.733Z,1028.89
2019-03-29T04:23:50.756Z,1028.88
2019-03-29T04:24:50.704Z,1028.86
2019-03-29T04:25:50.690Z,1028.85
2019-03-29T04:26:50.694Z,1028.85
2019-03-29T04:27:50.765Z,1028.81
2019-03-29T04:29:03.475Z,1028.87
2019-03-29T04:29:51.641Z,1028.86
2019-03-29T04:30:50.655Z,1028.85
2019-03-29T04:31:50.628Z,1028.87
2019-03-29T04:32:50.620Z,1028.84
2019-03-29T04:33:50.672Z,1028.85
2019-03-29T04:34:50.759Z,1028.85
2019-03-29T04:35:50.608Z,1028.84
2019-03-29T04:36:50.556Z,1028.79
2019-03-29T04:37:50.551Z,1028.77
2019-03-29T04:38:50.623Z,1028.80
2019-03-29T04:40:06.391Z,1028.81
2019-03-29T04:40:51.522Z,1028.78
2019-03-29T04:41:50.507Z,1028.74
2019-03-29T04:42:50.500Z,1028.74
2019-03-29T04:43:50.497Z,1028.73
2019-03-29T04:44:50.561Z,1028.75
2019-03-29T04:45:50.480Z,1028.74
2019-03-29T04:46:50.463Z,1028.75
2019-03-29T04:47:50.438Z,1028.77
2019-03-29T04:48:50.429Z,1028.77
2019-03-29T04:49:50.417Z,1028.77
2019-03-29T04:50:50.510Z,1028.75
2019-03-29T04:51:50.399Z,1028.78
2019-03-29T04:52:50.386Z,1028.77
2019-03-29T04:53:50.392Z,1028.74
2019-03-29T04:54:50.373Z,1028.74
2019-03-29T04:55:50.401Z,1028.70
2019-03-29T04:56:50.354Z,1028.72
2019-03-29T04:57:50.331Z,1028.72
2019-03-29T04:58:50.317Z,1028.68
2019-03-29T04:59:50.309Z,1028.71
2019-03-29T05:00:50.293Z,1028.73
2019-03-29T05:01:50.342Z,1028.74
2019-03-29T05:02:50.335Z,1028.74
2019-03-29T05:03:50.256Z,1028.74
2019-03-29T05:04:50.255Z,1028.74
2019-03-29T05:05:50.252Z,1028.75
2019-03-29T05:06:50.325Z,1028.72
2019-03-29T05:07:50.230Z,1028.76
2019-03-29T05:08:50.220Z,1028.75
2019-03-29T05:09:50.214Z,1028.72
2019-03-29T05:10:50.189Z,1028.75
2019-03-29T05:11:50.182Z,1028.74
2019-03-29T05:12:50.247Z,1028.75
2019-03-29T05:13:50.146Z,1028.72
2019-03-29T05:14:50.138Z,1028.75
2019-03-29T05:15:50.133Z,1028.77
2019-03-29T05:16:50.124Z,1028.74
2019-03-29T05:17:50.130Z,1028.75
2019-03-29T05:18:50.176Z,1028.70
2019-03-29T05:19:50.129Z,1028.72
2019-03-29T05:20:50.095Z,1028.69
2019-03-29T05:21:50.070Z,1028.69
2019-03-29T05:22:50.062Z,1028.74
2019-03-29T05:23:50.087Z,1028.74
2019-03-29T05:24:50.041Z,1028.72
2019-03-29T05:25:50.021Z,1028.79
2019-03-29T05:26:50.012Z,1028.78
2019-03-29T05:27:49.996Z,1028.83
2019-03-29T05:28:49.991Z,1028.81
2019-03-29T05:29:50.104Z,1028.78
2019-03-29T05:30:49.970Z,1028.77
2019-03-29T05:31:49.966Z,1028.74
2019-03-29T05:32:52.539Z,1028.75
2019-03-29T05:33:49.949Z,1028.80
2019-03-29T05:34:50.048Z,1028.78
2019-03-29T05:35:49.948Z,1028.79
2019-03-29T05:36:49.892Z,1028.81
2019-03-29T05:37:49.889Z,1028.78
2019-03-29T05:38:49.875Z,1028.80
2019-03-29T05:39:49.870Z,1028.80
2019-03-29T05:40:49.903Z,1028.77
2019-03-29T05:41:49.853Z,1028.76
2019-03-29T05:42:49.836Z,1028.78
2019-03-29T05:43:49.823Z,1028.77
2019-03-29T05:44:49.818Z,1028.81
2019-03-29T05:45:49.802Z,1028.82
2019-03-29T05:46:49.848Z,1028.81
2019-03-29T05:47:49.823Z,1028.81
2019-03-29T05:48:49.763Z,1028.88
2019-03-29T05:49:49.752Z,1028.85
2019-03-29T05:50:49.743Z,1028.85
2019-03-29T05:51:49.744Z,1028.85
2019-03-29T05:52:49.789Z,1028.84
2019-03-29T05:53:49.744Z,1028.83
2019-03-29T05:54:49.692Z,1028.84
2019-03-29T05:55:49.707Z,1028.81
2019-03-29T05:56:49.727Z,1028.82
2019-03-29T05:57:49.733Z,1028.79
2019-03-29T05:58:49.802Z,1028.82
2019-03-29T05:59:49.641Z,1028.82
2019-03-29T06:00:50.049Z,1028.81
2019-03-29T06:01:49.643Z,1028.80
2019-03-29T06:02:49.825Z,1028.83
2019-03-29T06:03:49.630Z,1028.77
2019-03-29T06:04:49.621Z,1028.81
2019-03-29T06:05:49.643Z,1028.77
2019-03-29T06:06:49.712Z,1028.79
2019-03-29T06:07:49.662Z,1028.76
2019-03-29T06:08:49.540Z,1028.76
2019-03-29T06:09:49.539Z,1028.80
2019-03-29T06:10:49.894Z,1028.72
2019-03-29T06:11:49.523Z,1028.81
2019-03-29T06:12:49.630Z,1028.79
2019-03-29T06:13:49.548Z,1028.76
2019-03-29T06:14:49.507Z,1028.75
2019-03-29T06:15:49.461Z,1028.72
2019-03-29T06:16:49.446Z,1028.74
2019-03-29T06:17:49.519Z,1028.77
2019-03-29T06:18:49.511Z,1028.77
2019-03-29T06:19:49.426Z,1028.75
2019-03-29T06:20:49.420Z,1028.80
2019-03-29T06:21:49.392Z,1028.74
2019-03-29T06:22:49.463Z,1028.77
2019-03-29T06:23:49.371Z,1028.75
2019-03-29T06:24:49.385Z,1028.72
2019-03-29T06:25:49.441Z,1028.79
2019-03-29T06:26:49.353Z,1028.74
2019-03-29T06:27:49.394Z,1028.73
2019-03-29T06:28:49.332Z,1028.71
2019-03-29T06:29:49.308Z,1028.70
2019-03-29T06:30:49.385Z,1028.71
2019-03-29T06:31:49.301Z,1028.70
2019-03-29T06:32:49.382Z,1028.71
2019-03-29T06:33:49.332Z,1028.71
2019-03-29T06:34:49.251Z,1028.68
2019-03-29T06:35:49.242Z,1028.70
2019-03-29T06:36:49.238Z,1028.72
2019-03-29T06:37:49.247Z,1028.70
2019-03-29T06:38:49.302Z,1028.73
2019-03-29T06:39:49.213Z,1028.77
2019-03-29T06:41:01.762Z,1028.72
2019-03-29T06:41:50.219Z,1028.70
2019-03-29T06:42:49.164Z,1028.70
2019-03-29T06:43:49.170Z,1028.74
2019-03-29T06:44:49.212Z,1028.68
2019-03-29T06:45:49.134Z,1028.70
2019-03-29T06:46:49.115Z,1028.68
2019-03-29T06:47:49.121Z,1028.66
2019-03-29T06:48:49.102Z,1028.67
2019-03-29T06:49:49.087Z,1028.68
2019-03-29T06:50:49.278Z,1028.68
2019-03-29T06:51:49.094Z,1028.66
2019-03-29T06:52:49.054Z,1028.64
2019-03-29T06:53:52.508Z,1028.65
2019-03-29T06:54:49.041Z,1028.65
2019-03-29T06:55:49.114Z,1028.65
2019-03-29T06:56:49.000Z,1028.68
2019-03-29T06:57:49.008Z,1028.68
2019-03-29T06:58:48.991Z,1028.68
2019-03-29T06:59:48.983Z,1028.61
2019-03-29T07:00:49.033Z,1028.63
2019-03-29T07:01:48.952Z,1028.65
2019-03-29T07:02:48.972Z,1028.63
2019-03-29T07:03:48.926Z,1028.60
2019-03-29T07:04:48.937Z,1028.61
2019-03-29T07:05:48.987Z,1028.63
2019-03-29T07:06:48.912Z,1028.65
2019-03-29T07:07:48.885Z,1028.66
2019-03-29T07:08:48.923Z,1028.67
2019-03-29T07:09:48.868Z,1028.68
2019-03-29T07:10:48.869Z,1028.67
2019-03-29T07:11:48.895Z,1028.68
2019-03-29T07:12:48.887Z,1028.70
2019-03-29T07:13:57.397Z,1028.68
2019-03-29T07:14:49.953Z,1028.69
2019-03-29T07:15:48.937Z,1028.66
2019-03-29T07:16:48.801Z,1028.67
2019-03-29T07:17:48.840Z,1028.67
2019-03-29T07:18:48.758Z,1028.71
2019-03-29T07:19:48.779Z,1028.72
2019-03-29T07:20:48.740Z,1028.73
2019-03-29T07:21:48.744Z,1028.77
2019-03-29T07:22:48.739Z,1028.78
2019-03-29T07:23:48.860Z,1028.79
2019-03-29T07:24:48.692Z,1028.82
2019-03-29T07:25:48.697Z,1028.80
2019-03-29T07:26:48.690Z,1028.86
2019-03-29T07:27:52.274Z,1028.82
2019-03-29T07:28:49.093Z,1028.78
2019-03-29T07:29:48.748Z,1028.85
2019-03-29T07:30:49.519Z,1028.82
2019-03-29T07:31:49.485Z,1028.77
2019-03-29T07:32:48.625Z,1028.80
2019-03-29T07:33:48.612Z,1028.85
2019-03-29T07:34:49.337Z,1028.79
2019-03-29T07:35:48.647Z,1028.80
2019-03-29T07:36:48.576Z,1028.77
2019-03-29T07:37:48.558Z,1028.81
2019-03-29T07:38:48.562Z,1028.80
2019-03-29T07:39:48.545Z,1028.82
2019-03-29T07:40:49.262Z,1028.79
2019-03-29T07:41:48.890Z,1028.83
2019-03-29T07:42:48.841Z,1028.84
2019-03-29T07:43:48.797Z,1028.82
2019-03-29T07:44:48.929Z,1028.79
2019-03-29T07:45:48.704Z,1028.81
2019-03-29T07:46:50.046Z,1028.82
2019-03-29T07:47:49.574Z,1028.82
2019-03-29T07:48:53.250Z,1028.80
2019-03-29T07:49:48.658Z,1028.78
2019-03-29T07:50:48.474Z,1028.77
2019-03-29T07:51:48.412Z,1028.80
2019-03-29T07:52:48.388Z,1028.81
2019-03-29T07:53:48.377Z,1028.79
2019-03-29T07:54:48.453Z,1028.79
2019-03-29T07:55:48.378Z,1028.73
2019-03-29T07:56:48.365Z,1028.77
2019-03-29T07:57:48.332Z,1028.75
2019-03-29T07:58:48.395Z,1028.74
2019-03-29T07:59:48.313Z,1028.77
2019-03-29T08:00:48.412Z,1028.72
2019-03-29T08:01:48.314Z,1028.73
2019-03-29T08:02:48.288Z,1028.72
2019-03-29T08:03:51.226Z,1028.71
2019-03-29T08:04:48.255Z,1028.69
2019-03-29T08:05:48.370Z,1028.73
2019-03-29T08:06:48.270Z,1028.69
2019-03-29T08:07:48.253Z,1028.70
2019-03-29T08:08:48.260Z,1028.70
2019-03-29T08:09:48.204Z,1028.66
2019-03-29T08:10:48.308Z,1028.69
2019-03-29T08:11:48.189Z,1028.66
2019-03-29T08:12:49.305Z,1028.64
2019-03-29T08:13:48.186Z,1028.65
2019-03-29T08:14:48.192Z,1028.62
2019-03-29T08:15:48.226Z,1028.59
2019-03-29T08:16:48.246Z,1028.62
2019-03-29T08:17:48.133Z,1028.64
2019-03-29T08:18:48.143Z,1028.65
2019-03-29T08:20:03.914Z,1028.56
2019-03-29T08:20:49.148Z,1028.59
2019-03-29T08:21:48.074Z,1028.61
2019-03-29T08:22:48.059Z,1028.62
2019-03-29T08:23:48.060Z,1028.61
2019-03-29T08:24:48.095Z,1028.59
2019-03-29T08:25:48.059Z,1028.59
2019-03-29T08:26:48.096Z,1028.59
2019-03-29T08:27:48.055Z,1028.61
2019-03-29T08:28:48.066Z,1028.60
2019-03-29T08:29:48.026Z,1028.60
2019-03-29T08:30:47.971Z,1028.61
2019-03-29T08:31:47.977Z,1028.61
2019-03-29T08:32:47.949Z,1028.64
2019-03-29T08:33:47.935Z,1028.64
2019-03-29T08:34:48.200Z,1028.61
2019-03-29T08:35:47.982Z,1028.64
2019-03-29T08:36:47.969Z,1028.61
2019-03-29T08:37:47.898Z,1028.60
2019-03-29T08:38:47.882Z,1028.62
2019-03-29T08:39:47.879Z,1028.65
2019-03-29T08:40:47.929Z,1028.65
2019-03-29T08:41:59.413Z,1028.64
2019-03-29T08:42:48.832Z,1028.67
2019-03-29T08:43:47.898Z,1028.66
2019-03-29T08:44:47.820Z,1028.67
2019-03-29T08:45:47.813Z,1028.65
2019-03-29T08:46:47.797Z,1028.68
2019-03-29T08:47:47.803Z,1028.68
2019-03-29T08:48:47.787Z,1028.66
2019-03-29T08:49:47.938Z,1028.68
2019-03-29T08:50:47.749Z,1028.64
2019-03-29T08:51:48.009Z,1028.64
2019-03-29T08:52:47.735Z,1028.61
2019-03-29T08:53:47.802Z,1028.66
2019-03-29T08:54:51.070Z,1028.63
2019-03-29T08:55:47.695Z,1028.65
2019-03-29T08:56:47.698Z,1028.65
2019-03-29T08:57:47.670Z,1028.68
2019-03-29T08:58:47.659Z,1028.74
2019-03-29T08:59:47.734Z,1028.66
2019-03-29T09:00:47.672Z,1028.67
2019-03-29T09:01:47.799Z,1028.68
2019-03-29T09:02:47.637Z,1028.66
2019-03-29T09:04:02.756Z,1028.67
2019-03-29T09:04:48.598Z,1028.62
2019-03-29T09:05:47.583Z,1028.61
2019-03-29T09:06:53.752Z,1028.58
2019-03-29T09:07:48.596Z,1028.56
2019-03-29T09:08:47.560Z,1028.57
2019-03-29T09:09:47.647Z,1028.56
2019-03-29T09:10:47.533Z,1028.55
2019-03-29T09:11:47.659Z,1028.56
2019-03-29T09:12:47.651Z,1028.50
2019-03-29T09:13:47.507Z,1028.53
2019-03-29T09:14:47.523Z,1028.52
2019-03-29T09:15:47.489Z,1028.58
2019-03-29T09:16:47.467Z,1028.55
2019-03-29T09:17:47.451Z,1028.60
2019-03-29T09:18:47.514Z,1028.57
2019-03-29T09:19:47.457Z,1028.54
2019-03-29T09:20:47.423Z,1028.53
2019-03-29T09:21:47.444Z,1028.52
2019-03-29T09:22:47.393Z,1028.53
2019-03-29T09:23:47.479Z,1028.56
2019-03-29T09:24:47.407Z,1028.57
2019-03-29T09:25:47.375Z,1028.61
2019-03-29T09:26:47.348Z,1028.59
2019-03-29T09:27:47.481Z,1028.60
2019-03-29T09:28:47.415Z,1028.53
2019-03-29T09:29:47.410Z,1028.58
2019-03-29T09:30:47.316Z,1028.61
2019-03-29T09:31:47.378Z,1028.56
2019-03-29T09:32:50.932Z,1028.58
2019-03-29T09:33:47.270Z,1028.58
2019-03-29T09:34:47.316Z,1028.57
2019-03-29T09:35:47.284Z,1028.53
2019-03-29T09:36:47.283Z,1028.59
2019-03-29T09:37:47.282Z,1028.61
2019-03-29T09:38:47.334Z,1028.58
2019-03-29T09:39:47.299Z,1028.59
2019-03-29T09:40:57.707Z,1028.59
2019-03-29T09:41:48.211Z,1028.60
2019-03-29T09:42:50.574Z,1028.60
2019-03-29T09:43:48.193Z,1028.61
2019-03-29T09:44:47.293Z,1028.60
2019-03-29T09:45:47.282Z,1028.56
2019-03-29T09:46:47.509Z,1028.56
2019-03-29T09:47:47.302Z,1028.55
2019-03-29T09:48:47.495Z,1028.60
2019-03-29T09:49:47.286Z,1028.59
2019-03-29T09:50:50.582Z,1028.58
2019-03-29T09:51:47.319Z,1028.58
2019-03-29T09:52:47.461Z,1028.55
2019-03-29T09:53:47.249Z,1028.52
2019-03-29T09:54:47.248Z,1028.49
2019-03-29T09:55:47.240Z,1028.53
2019-03-29T09:56:48.447Z,1028.49
2019-03-29T09:57:47.238Z,1028.47
2019-03-29T09:58:47.439Z,1028.49
2019-03-29T09:59:47.269Z,1028.43
2019-03-29T10:00:47.233Z,1028.45
2019-03-29T10:01:47.225Z,1028.46
2019-03-29T10:02:46.944Z,1028.47
2019-03-29T10:04:01.197Z,1028.43
2019-03-29T10:04:46.913Z,1028.42
2019-03-29T10:05:47.410Z,1028.45
2019-03-29T10:06:46.909Z,1028.45
2019-03-29T10:07:49.466Z,1028.46
2019-03-29T10:08:46.914Z,1028.43
2019-03-29T10:09:46.925Z,1028.43
2019-03-29T10:10:46.934Z,1028.44
2019-03-29T10:11:46.843Z,1028.43
2019-03-29T10:12:46.950Z,1028.46
2019-03-29T10:13:46.828Z,1028.47
2019-03-29T10:14:46.828Z,1028.42
2019-03-29T10:15:46.785Z,1028.43
2019-03-29T10:16:46.782Z,1028.39
2019-03-29T10:17:46.782Z,1028.40
2019-03-29T10:18:46.857Z,1028.43
2019-03-29T10:19:49.746Z,1028.41
2019-03-29T10:20:46.796Z,1028.42
2019-03-29T10:21:46.739Z,1028.41
2019-03-29T10:22:46.718Z,1028.36
2019-03-29T10:23:46.703Z,1028.38
2019-03-29T10:24:46.799Z,1028.34
2019-03-29T10:25:46.692Z,1028.35
2019-03-29T10:26:46.670Z,1028.40
2019-03-29T10:27:46.769Z,1028.39
2019-03-29T10:28:46.681Z,1028.36
2019-03-29T10:29:46.633Z,1028.41
2019-03-29T10:30:47.163Z,1028.40
2019-03-29T10:31:46.604Z,1028.35
2019-03-29T10:32:46.603Z,1028.36
2019-03-29T10:33:49.120Z,1028.35
2019-03-29T10:34:46.587Z,1028.34
2019-03-29T10:35:52.305Z,1028.30
2019-03-29T10:36:47.825Z,1028.29
2019-03-29T10:37:46.642Z,1028.29
2019-03-29T10:38:46.533Z,1028.23
2019-03-29T10:39:46.567Z,1028.20
2019-03-29T10:40:46.514Z,1028.19
2019-03-29T10:41:46.663Z,1028.20
2019-03-29T10:42:57.013Z,1028.12
2019-03-29T10:43:47.484Z,1028.13
2019-03-29T10:44:49.280Z,1028.11
2019-03-29T10:45:46.522Z,1028.13
2019-03-29T10:46:46.451Z,1028.14
2019-03-29T10:47:46.543Z,1028.09
2019-03-29T10:48:46.412Z,1028.09
2019-03-29T10:49:46.823Z,1028.15
2019-03-29T10:50:46.407Z,1028.11
2019-03-29T10:51:46.409Z,1028.05
2019-03-29T10:52:46.378Z,1028.03
2019-03-29T10:53:46.474Z,1028.05
2019-03-29T10:54:49.647Z,1028.05
2019-03-29T10:55:46.351Z,1028.05
2019-03-29T10:56:46.347Z,1027.99
2019-03-29T10:57:46.327Z,1027.98
2019-03-29T10:58:46.313Z,1027.96
2019-03-29T10:59:46.377Z,1027.95
2019-03-29T11:00:46.378Z,1027.96
2019-03-29T11:01:46.273Z,1027.93
2019-03-29T11:02:46.263Z,1027.94
2019-03-29T11:03:46.276Z,1027.96
2019-03-29T11:04:46.263Z,1027.95
2019-03-29T11:05:46.245Z,1027.94
2019-03-29T11:06:46.307Z,1027.94
2019-03-29T11:07:46.212Z,1027.93
2019-03-29T11:08:46.260Z,1027.89
2019-03-29T11:09:46.251Z,1027.89
2019-03-29T11:10:46.871Z,1027.90
2019-03-29T11:11:46.205Z,1027.89
2019-03-29T11:12:46.290Z,1027.84
2019-03-29T11:13:46.264Z,1027.85
2019-03-29T11:14:46.153Z,1027.85
2019-03-29T11:15:46.112Z,1027.81
2019-03-29T11:16:46.131Z,1027.87
2019-03-29T11:17:46.105Z,1027.81
2019-03-29T11:18:46.090Z,1027.78
2019-03-29T11:19:46.242Z,1027.78
2019-03-29T11:20:46.065Z,1027.76
2019-03-29T11:21:46.054Z,1027.77
2019-03-29T11:22:46.039Z,1027.73
2019-03-29T11:23:46.045Z,1027.71
2019-03-29T11:24:46.030Z,1027.72
2019-03-29T11:25:48.575Z,1027.71
2019-03-29T11:26:46.057Z,1027.69
2019-03-29T11:27:46.051Z,1027.70
2019-03-29T11:28:45.986Z,1027.70
2019-03-29T11:29:45.972Z,1027.64
2019-03-29T11:30:46.047Z,1027.67
2019-03-29T11:31:45.945Z,1027.66
2019-03-29T11:32:45.930Z,1027.61
2019-03-29T11:33:45.927Z,1027.67
2019-03-29T11:34:45.910Z,1027.66
2019-03-29T11:35:45.958Z,1027.68
2019-03-29T11:36:45.890Z,1027.67
2019-03-29T11:37:45.878Z,1027.67
2019-03-29T11:38:45.860Z,1027.64
2019-03-29T11:39:45.867Z,1027.62
2019-03-29T11:40:45.917Z,1027.62
2019-03-29T11:41:45.846Z,1027.61
2019-03-29T11:42:45.912Z,1027.53
2019-03-29T11:43:45.820Z,1027.50
2019-03-29T11:44:45.802Z,1027.50
2019-03-29T11:45:45.811Z,1027.50
2019-03-29T11:46:45.823Z,1027.47
2019-03-29T11:47:45.767Z,1027.47
2019-03-29T11:48:45.833Z,1027.50
2019-03-29T11:49:45.767Z,1027.49
2019-03-29T11:50:45.734Z,1027.50
2019-03-29T11:51:45.722Z,1027.48
2019-03-29T11:52:45.716Z,1027.44
2019-03-29T11:53:45.724Z,1027.44
2019-03-29T11:54:45.758Z,1027.44
2019-03-29T11:55:45.996Z,1027.45
2019-03-29T11:56:47.589Z,1027.40
2019-03-29T11:57:45.788Z,1027.39
2019-03-29T11:58:45.729Z,1027.40
2019-03-29T11:59:45.696Z,1027.34
2019-03-29T12:00:45.620Z,1027.35
2019-03-29T12:01:45.606Z,1027.31
2019-03-29T12:02:45.614Z,1027.38
2019-03-29T12:03:45.582Z,1027.35
2019-03-29T12:04:47.393Z,1027.39
2019-03-29T12:05:45.577Z,1027.34
2019-03-29T12:06:45.563Z,1027.37